EGNR/CEG METAR and TAF weather

Enter ICAO airport designator
Station Type Date Time Source
EGNR METAR 2019/02/23 18:50 UTC NOAA

EGNR 231850Z VRB02KT 8000 FEW044 12/08 Q1032


Station Type Date Time Source
EGNR Decoded METAR 2019/02/23 18:50 UTC NOAA

Hawarden, United Kingdom (EGNR) 53-10N 002-59W 0M
Feb 23, 2019 - 01:50 PM EST / 2019.02.23 1850 UTC
Wind: Variable at 2 MPH (2 KT):0
Visibility: 4 mile(s):0
Sky conditions: mostly clear
Temperature: 53 F (12 C)
Dew Point: 46 F (8 C)
Relative Humidity: 76%
Pressure (altimeter): 30.47 in. Hg (1032 hPa)
ob: EGNR 231850Z VRB02KT 8000 FEW044 12/08 Q1032
cycle: 19

Station Type Date Time Source
EGNR TAF 2016/01/23 12:00 UTC NOAA

TAF EGNR 231059Z 2312/2319 15009KT 9999 FEW020
BECMG 2316/2319 BKN014
TEMPO 2317/2319 6000 RA BKN008


Example: see airport list